| time (UTC) | temp F | wind direction | speed MPH | gust MPH | rain 1hr in | rain 24hr in | rain mn in | humidity % | barometer mb |
| 20260503054547 | 71 | 71 | 0.0 | 0.0 | 0.00 | 0.35 | 0.00 | 95 | 1014.1 |
| 20260503053047 | 71 | 71 | 0.0 | 1.0 | 0.00 | 0.35 | 0.00 | 95 | 1014.2 |
| 20260503051546 | 71 | 71 | 0.0 | 1.0 | 0.00 | 0.35 | 0.00 | 95 | 1014.0 |
| 20260503050038 | 71 | 71 | 0.0 | 0.0 | 0.00 | 0.35 | 0.00 | 95 | 1014.3 |
| 20260503044536 | 71 | 71 | 0.0 | 0.0 | 0.00 | 0.35 | 0.00 | 95 | 1014.2 |
| 20260503043032 | 71 | 71 | 0.0 | 1.0 | 0.00 | 0.35 | 0.00 | 95 | 1014.2 |
| 20260503041532 | 71 | 71 | 0.0 | 1.0 | 0.00 | 0.35 | 0.00 | 95 | 1014.2 |
| 20260503040030 | 71 | 168 | 0.0 | 0.0 | 0.00 | 0.35 | 0.00 | 95 | 1014.1 |
| 20260503034529 | 71 | 168 | 0.0 | 0.0 | 0.00 | 0.35 | 0.35 | 95 | 1013.8 |
| 20260503033039 | 71 | 168 | 0.0 | 0.0 | 0.00 | 0.35 | 0.35 | 95 | 1013.6 |
| 20260503031524 | 71 | 168 | 0.0 | 0.0 | 0.00 | 0.35 | 0.35 | 95 | 1013.3 |
| 20260503030024 | 71 | 168 | 0.0 | 0.0 | 0.00 | 0.35 | 0.35 | 95 | 1012.8 |
| 20260503024523 | 71 | 168 | 0.0 | 0.0 | 0.00 | 0.35 | 0.35 | 95 | 1013.2 |
| 20260503023022 | 71 | 170 | 0.0 | 0.0 | 0.00 | 0.35 | 0.35 | 95 | 1012.8 |
| 20260503021526 | 71 | 170 | 0.0 | 0.0 | 0.00 | 0.35 | 0.35 | 95 | 1013.1 |
| 20260503020021 | 71 | 165 | 0.0 | 0.0 | 0.00 | 0.35 | 0.35 | 95 | 1013.3 |
| 20260503014531 | 71 | 165 | 0.0 | 0.0 | 0.01 | 0.35 | 0.35 | 95 | 1013.1 |
| 20260503013018 | 71 | 165 | 0.0 | 0.0 | 0.01 | 0.35 | 0.35 | 95 | 1012.6 |
| 20260503011516 | 71 | 165 | 0.0 | 0.0 | 0.01 | 0.35 | 0.35 | 95 | 1011.7 |
| 20260503010017 | 71 | 165 | 0.0 | 1.0 | 0.01 | 0.35 | 0.35 | 95 | 1011.9 |
| 20260503004524 | 71 | 194 | 0.0 | 0.0 | 0.00 | 0.34 | 0.34 | 95 | 1012.2 |
| 20260503003015 | 71 | 193 | 0.0 | 0.0 | 0.00 | 0.34 | 0.34 | 94 | 1011.9 |
| 20260503001515 | 71 | 194 | 0.0 | 3.0 | 0.01 | 0.34 | 0.34 | 95 | 1011.7 |
| 20260503000013 | 71 | 252 | 1.0 | 3.0 | 0.01 | 0.34 | 0.34 | 94 | 1012.1 |
| 20260502234513 | 71 | 207 | 2.0 | 7.0 | 0.01 | 0.34 | 0.34 | 94 | 1009.5 |
| 20260502233013 | 72 | 147 | 0.0 | 0.0 | 0.02 | 0.34 | 0.34 | 94 | 1011.0 |
| 20260502231515 | 72 | 142 | 0.0 | 0.0 | 0.02 | 0.33 | 0.33 | 94 | 1011.5 |
| 20260502230015 | 72 | 142 | 0.0 | 1.0 | 0.04 | 0.33 | 0.33 | 94 | 1011.3 |
| 20260502224511 | 72 | 200 | 0.0 | 0.0 | 0.05 | 0.33 | 0.33 | 94 | 1011.3 |
| 20260502223010 | 72 | 200 | 0.0 | 0.0 | 0.05 | 0.32 | 0.32 | 94 | 1011.1 |
| 20260502221510 | 72 | 200 | 0.0 | 0.0 | 0.05 | 0.31 | 0.31 | 93 | 1011.4 |
| 20260502220010 | 72 | 200 | 0.0 | 0.0 | 0.06 | 0.28 | 0.28 | 93 | 1011.7 |
| 20260502214512 | 72 | 200 | 0.0 | 1.0 | 0.05 | 0.28 | 0.28 | 93 | 1011.1 |
| 20260502213008 | 72 | 267 | 0.0 | 3.0 | 0.04 | 0.27 | 0.27 | 92 | 1011.0 |
| 20260502211515 | 72 | 269 | 0.0 | 3.0 | 0.26 | 0.26 | 0.26 | 92 | 1011.1 |
| 20260502210013 | 72 | 268 | 2.0 | 4.0 | 0.23 | 0.23 | 0.23 | 91 | 1011.3 |
| 20260502204507 | 74 | 265 | 0.0 | 0.0 | 0.23 | 0.23 | 0.23 | 90 | 1011.2 |
| 20260502203006 | 76 | 265 | 2.0 | 10.0 | 0.23 | 0.23 | 0.23 | 88 | 1010.9 |
| 20260502201507 | 81 | 270 | 0.0 | 0.0 | 0.00 | 0.00 | 0.00 | 85 | 1010.6 |
| 20260502200006 | 81 | 270 | 3.0 | 6.0 | 0.00 | 0.00 | 0.00 | 85 | 1010.7 |
| 20260502194505 | 81 | 266 | 3.0 | 8.0 | 0.00 | 0.00 | 0.00 | 84 | 1010.7 |
| 20260502193004 | 82 | 256 | 3.0 | 6.0 | 0.00 | 0.00 | 0.00 | 84 | 1011.0 |
| 20260502191504 | 82 | 264 | 4.0 | 9.0 | 0.00 | 0.00 | 0.00 | 82 | 1011.1 |
| 20260502190004 | 82 | 242 | 4.0 | 8.0 | 0.00 | 0.00 | 0.00 | 79 | 1011.3 |
| 20260502184503 | 83 | 259 | 4.0 | 7.0 | 0.00 | 0.00 | 0.00 | 78 | 1011.3 |
| 20260502183002 | 84 | 246 | 3.0 | 9.0 | 0.00 | 0.00 | 0.00 | 75 | 1011.3 |
| 20260502181501 | 84 | 262 | 4.0 | 11.0 | 0.00 | 0.00 | 0.00 | 75 | 1011.4 |
| 20260502163058 | 85 | 196 | 3.0 | 14.0 | 0.00 | 0.00 | 0.00 | 76 | 1011.8 |
| 20260502161559 | 85 | 273 | 4.0 | 13.0 | 0.00 | 0.00 | 0.00 | 76 | 1011.9 |
| 20260502151601 | 85 | 250 | 5.0 | 11.0 | 0.00 | 0.00 | 0.00 | 78 | 1011.7 |
| 20260502123018 | 70 | 116 | 0.0 | 0.0 | 0.00 | 0.00 | 0.00 | 95 | 1010.7 |
| 20260502121515 | 69 | 112 | 0.0 | 4.0 | 0.00 | 0.00 | 0.00 | 94 | 1010.8 |
| 20260502114510 | 68 | 107 | 0.0 | 4.0 | 0.00 | 0.00 | 0.00 | 94 | 1010.7 |
| 20260502113008 | 68 | 120 | 0.0 | 4.0 | 0.00 | 0.00 | 0.00 | 94 | 1010.5 |
| 20260502111506 | 68 | 130 | 0.0 | 3.0 | 0.00 | 0.00 | 0.00 | 94 | 1010.5 |
| 20260502110004 | 68 | 144 | 0.0 | 4.0 | 0.00 | 0.00 | 0.00 | 94 | 1010.4 |
| 20260502104503 | 68 | 80 | 0.0 | 5.0 | 0.00 | 0.00 | 0.00 | 94 | 1010.3 |
| 20260502103100 | 69 | 107 | 1.0 | 4.0 | 0.00 | 0.00 | 0.00 | 94 | 1009.9 |
| 20260502101624 | 69 | 107 | 1.0 | 3.0 | 0.00 | 0.00 | 0.00 | 94 | 1010.2 |
| 20260502100104 | 69 | 112 | 0.0 | 3.0 | 0.00 | 0.00 | 0.00 | 94 | 1010.4 |
| 20260502090107 | 70 | 261 | 0.0 | 3.0 | 0.00 | 0.00 | 0.00 | 93 | 1010.5 |
| 20260502070056 | 72 | 265 | 0.0 | 0.0 | 0.00 | 0.00 | 0.00 | 92 | 1011.1 |
| 20260502064547 | 72 | 265 | 0.0 | 0.0 | 0.00 | 0.00 | 0.00 | 92 | 1011.0 |